Time;durP1;ratioP1;P1;durP2;ratioP2;P2;SDS_P1;SDS_P2;PMS_P1;PMS_P2;Temp;Humidity;BMP_temperature;BMP_pressure;BME280_temperature;BME280_humidity;BME280_pressure;Samples;Min_cycle;Max_cycle;Signal;HPM_P1;HPM_P2
2021/01/13 00:02:19;;;;;;;25.80;23.37;;;1.10;99.90;;;;;;5103927;27;20487;-78
2021/01/13 00:04:45;;;;;;;23.90;21.30;;;1.10;99.90;;;;;;5101840;28;20996;-78
2021/01/13 00:07:15;;;;;;;23.87;21.37;;;1.10;99.90;;;;;;5114882;27;20475;-76
2021/01/13 00:09:44;;;;;;;31.50;22.37;;;1.10;99.90;;;;;;5107831;27;20477;-78
2021/01/13 00:12:11;;;;;;;32.33;23.77;;;1.10;99.90;;;;;;5109620;27;20496;-75
2021/01/13 00:14:38;;;;;;;29.57;22.60;;;1.10;99.90;;;;;;5091843;27;20529;-77
2021/01/13 00:17:04;;;;;;;34.00;22.73;;;1.10;99.90;;;;;;5105597;27;20599;-78
2021/01/13 00:19:31;;;;;;;23.97;21.47;;;1.10;99.90;;;;;;5107459;27;20469;-77
2021/01/13 00:21:57;;;;;;;25.57;23.30;;;1.10;99.90;;;;;;5115687;27;20462;-77
2021/01/13 00:24:24;;;;;;;25.40;22.70;;;1.10;99.90;;;;;;5109978;27;20492;-78
2021/01/13 00:26:59;;;;;;;26.90;24.30;;;1.10;99.90;;;;;;5105610;27;20448;-77
2021/01/13 00:29:26;;;;;;;25.00;22.47;;;1.00;99.90;;;;;;5112603;27;21009;-76
2021/01/13 00:31:56;;;;;;;25.77;23.07;;;1.00;99.90;;;;;;5108648;27;20482;-75
2021/01/13 00:34:23;;;;;;;34.73;23.23;;;1.00;99.90;;;;;;5099246;27;20500;-77
2021/01/13 00:36:49;;;;;;;31.73;23.17;;;1.00;99.90;;;;;;5104373;27;20490;-75
2021/01/13 00:39:17;;;;;;;30.90;24.70;;;1.00;99.90;;;;;;5110415;27;20468;-77
2021/01/13 00:41:44;;;;;;;30.77;24.57;;;1.00;99.90;;;;;;5103255;27;20459;-75
2021/01/13 00:44:11;;;;;;;25.93;23.60;;;1.00;99.90;;;;;;5098004;27;20472;-75
2021/01/13 00:46:39;;;;;;;28.37;23.73;;;1.00;99.90;;;;;;5088855;27;20543;-76
2021/01/13 00:49:06;;;;;;;30.97;23.73;;;1.00;99.90;;;;;;5111129;27;20464;-76
2021/01/13 00:51:35;;;;;;;36.73;24.50;;;1.00;99.90;;;;;;5110624;27;20496;-75
2021/01/13 00:54:02;;;;;;;28.73;25.37;;;1.00;99.90;;;;;;5106549;27;20518;-76
2021/01/13 00:56:28;;;;;;;38.27;24.77;;;1.00;99.90;;;;;;5104171;27;20475;-74
2021/01/13 00:58:57;;;;;;;37.30;23.17;;;1.00;99.90;;;;;;5101522;27;20460;-76
2021/01/13 01:01:27;;;;;;;40.23;23.63;;;1.00;99.90;;;;;;5106847;27;20467;-75
2021/01/13 01:03:55;;;;;;;31.03;26.40;;;1.00;99.90;;;;;;5105323;27;20518;-76
2021/01/13 01:06:21;;;;;;;32.17;25.33;;;1.00;99.90;;;;;;5113559;27;21058;-74
2021/01/13 01:08:48;;;;;;;42.80;25.50;;;1.00;99.90;;;;;;5107846;27;20478;-74
2021/01/13 01:11:18;;;;;;;33.00;24.90;;;1.00;99.90;;;;;;5104149;27;20463;-76
2021/01/13 01:13:44;;;;;;;25.87;23.67;;;1.00;99.90;;;;;;5094479;28;20456;-76
2021/01/13 01:16:11;;;;;;;29.60;25.67;;;1.00;99.90;;;;;;5109118;27;20466;-75
2021/01/13 01:18:39;;;;;;;32.90;25.57;;;1.00;99.90;;;;;;5103363;27;20983;-75
2021/01/13 01:21:08;;;;;;;26.67;24.07;;;1.00;99.90;;;;;;5103352;27;20463;-75
2021/01/13 01:23:34;;;;;;;47.70;28.53;;;1.10;99.90;;;;;;5098970;28;20953;-75
2021/01/13 01:26:02;;;;;;;28.90;26.10;;;1.10;99.90;;;;;;5100990;27;20460;-76
2021/01/13 01:28:28;;;;;;;33.67;26.73;;;1.20;99.90;;;;;;5099287;27;20495;-77
2021/01/13 01:30:54;;;;;;;38.27;26.07;;;1.20;99.90;;;;;;5113327;27;20461;-75
2021/01/13 01:33:21;;;;;;;35.43;27.60;;;1.20;99.90;;;;;;5109889;27;20460;-77
2021/01/13 01:35:50;;;;;;;29.80;26.67;;;1.30;99.90;;;;;;5109890;27;20455;-77
2021/01/13 01:38:17;;;;;;;40.93;29.23;;;1.30;99.90;;;;;;5101692;27;20573;-76
2021/01/13 01:40:43;;;;;;;31.20;27.93;;;1.30;99.90;;;;;;5107137;27;20974;-78
2021/01/13 01:43:09;;;;;;;35.83;29.77;;;1.30;99.90;;;;;;5098612;27;20771;-76
2021/01/13 01:45:37;;;;;;;43.23;28.07;;;1.30;99.90;;;;;;5095435;28;20707;-78
2021/01/13 01:48:26;;;;;;;31.80;28.50;;;1.20;99.90;;;;;;5106694;27;20449;-76
2021/01/13 01:50:58;;;;;;;33.57;26.60;;;1.20;99.90;;;;;;5104578;27;20457;-75
2021/01/13 01:54:12;;;;;;;31.07;27.70;;;1.20;99.90;;;;;;5106553;27;20571;-75
2021/01/13 01:56:40;;;;;;;33.67;30.07;;;1.10;99.90;;;;;;5026088;28;20514;-74
2021/01/13 01:59:08;;;;;;;31.37;28.17;;;1.20;99.90;;;;;;5036642;28;20458;-77
2021/01/13 02:01:38;;;;;;;31.10;27.13;;;1.20;99.90;;;;;;5070750;28;20512;-75
2021/01/13 02:04:06;;;;;;;31.10;27.97;;;1.20;99.90;;;;;;5106828;27;20490;-77
2021/01/13 02:06:41;;;;;;;36.20;28.00;;;1.30;99.90;;;;;;5105390;27;20520;-78
2021/01/13 02:09:08;;;;;;;39.77;29.97;;;1.20;99.90;;;;;;5110318;27;20519;-75
2021/01/13 02:11:42;;;;;;;32.47;28.27;;;1.30;99.90;;;;;;5110738;27;20464;-75
2021/01/13 02:14:12;;;;;;;33.03;28.20;;;1.20;99.90;;;;;;5101963;27;20452;-78
2021/01/13 02:16:44;;;;;;;31.47;26.60;;;1.20;99.90;;;;;;5111224;27;20460;-75
2021/01/13 02:19:30;;;;;;;30.50;27.60;;;1.30;99.90;;;;;;5101543;27;20561;-75
2021/01/13 02:22:03;;;;;;;31.27;27.97;;;1.30;99.90;;;;;;5104580;28;20959;-75
2021/01/13 02:25:13;;;;;;;37.90;27.60;;;1.30;99.90;;;;;;5104194;27;20497;-75
2021/01/13 02:27:59;;;;;;;34.33;26.87;;;1.30;99.90;;;;;;5102110;28;20456;-77
2021/01/13 02:30:33;;;;;;;36.40;26.80;;;1.30;99.90;;;;;;5107988;28;20457;-74
2021/01/13 02:33:02;;;;;;;31.17;28.17;;;1.30;99.90;;;;;;5104337;28;20473;-75
2021/01/13 02:35:29;;;;;;;32.47;28.97;;;1.40;99.90;;;;;;5105999;28;20986;-75
2021/01/13 02:38:06;;;;;;;36.03;29.30;;;1.40;99.90;;;;;;5112660;27;20950;-74
2021/01/13 02:40:34;;;;;;;38.97;28.53;;;1.40;99.90;;;;;;5107826;28;20489;-78
2021/01/13 02:43:04;;;;;;;43.27;30.33;;;1.40;99.90;;;;;;5098779;28;20502;-74
2021/01/13 02:45:34;;;;;;;35.20;28.63;;;1.40;99.90;;;;;;5100703;28;20508;-77
2021/01/13 02:48:10;;;;;;;38.10;28.73;;;1.40;99.90;;;;;;5109027;28;20516;-75
2021/01/13 02:50:39;;;;;;;28.73;24.47;;;1.50;99.90;;;;;;5105921;28;20460;-75
2021/01/13 02:53:45;;;;;;;33.53;28.43;;;1.40;99.90;;;;;;5112469;28;20460;-75
2021/01/13 02:56:33;;;;;;;30.87;27.10;;;1.40;99.90;;;;;;5108420;28;20483;-76
2021/01/13 02:59:08;;;;;;;30.80;26.80;;;1.40;99.90;;;;;;5107088;27;20466;-74
2021/01/13 03:01:39;;;;;;;38.43;29.30;;;1.40;99.90;;;;;;5098283;28;20457;-77
2021/01/13 03:04:05;;;;;;;33.50;28.27;;;1.40;99.90;;;;;;5108089;27;20571;-75
2021/01/13 03:06:36;;;;;;;33.40;28.50;;;1.30;99.90;;;;;;5103053;27;20469;-75
2021/01/13 03:09:04;;;;;;;37.33;27.23;;;1.30;99.90;;;;;;5113797;27;20948;-77
2021/01/13 03:11:31;;;;;;;32.67;29.30;;;1.30;99.90;;;;;;5106241;27;20456;-76
2021/01/13 03:14:11;;;;;;;33.60;29.97;;;1.20;99.90;;;;;;5111085;27;20479;-75
2021/01/13 03:16:43;;;;;;;40.73;29.80;;;1.30;99.90;;;;;;5106744;27;20537;-75
2021/01/13 03:19:17;;;;;;;42.10;31.80;;;1.30;99.90;;;;;;5108626;27;20471;-75
2021/01/13 03:21:55;;;;;;;35.90;31.17;;;1.30;99.90;;;;;;5110771;27;20490;-74
2021/01/13 03:24:40;;;;;;;36.90;30.80;;;1.40;99.90;;;;;;5102562;27;21009;-77
2021/01/13 03:27:09;;;;;;;35.80;28.80;;;1.40;99.90;;;;;;5102101;27;20452;-75
2021/01/13 03:29:40;;;;;;;34.60;28.90;;;1.50;99.90;;;;;;5103688;27;20488;-76
2021/01/13 03:32:09;;;;;;;39.40;29.87;;;1.40;99.90;;;;;;5106330;27;20488;-75
2021/01/13 03:34:54;;;;;;;29.47;26.43;;;1.40;99.90;;;;;;5112133;27;20468;-78
2021/01/13 03:37:24;;;;;;;26.70;24.47;;;1.40;99.90;;;;;;5107310;27;20992;-77
2021/01/13 03:39:52;;;;;;;33.67;28.57;;;1.40;99.90;;;;;;5106297;27;20455;-74
2021/01/13 03:42:20;;;;;;;40.30;28.80;;;1.40;99.90;;;;;;5104539;27;20563;-73
2021/01/13 03:44:49;;;;;;;32.33;29.17;;;1.50;99.90;;;;;;5109498;27;20583;-74
2021/01/13 03:47:51;;;;;;;39.43;29.40;;;1.50;99.90;;;;;;5103697;27;21179;-77
2021/01/13 03:50:22;;;;;;;41.73;29.87;;;1.40;99.90;;;;;;5108988;27;20475;-77
2021/01/13 03:53:07;;;;;;;35.33;29.13;;;1.50;99.90;;;;;;5113185;27;21056;-76
2021/01/13 03:55:35;;;;;;;37.07;27.97;;;1.60;99.90;;;;;;5115478;27;20456;-73
2021/01/13 03:58:41;;;;;;;35.70;28.43;;;1.50;99.90;;;;;;5110398;27;20445;-74
2021/01/13 04:01:52;;;;;;;32.93;28.97;;;1.50;99.90;;;;;;5067460;27;20916;-79
2021/01/13 04:04:59;;;;;;;34.73;31.37;;;1.50;99.90;;;;;;5101559;27;20618;-75
2021/01/13 04:07:36;;;;;;;37.50;28.20;;;1.50;99.90;;;;;;5103508;27;20502;-74
2021/01/13 04:10:06;;;;;;;35.37;31.67;;;1.50;99.90;;;;;;5103178;27;20468;-75
2021/01/13 04:12:43;;;;;;;41.43;29.93;;;1.40;99.90;;;;;;5100957;27;20468;-76
2021/01/13 04:15:10;;;;;;;34.50;29.53;;;1.50;99.90;;;;;;5101081;28;20963;-73
2021/01/13 04:17:40;;;;;;;37.63;29.30;;;1.50;99.90;;;;;;5103812;27;20467;-77
2021/01/13 04:20:11;;;;;;;34.00;29.53;;;1.40;99.90;;;;;;5102139;27;20550;-78
2021/01/13 04:22:38;;;;;;;35.33;28.53;;;1.40;99.90;;;;;;5102267;27;20998;-77
2021/01/13 04:25:05;;;;;;;33.30;29.40;;;1.50;99.90;;;;;;5099541;27;20493;-74
2021/01/13 04:27:32;;;;;;;34.37;30.53;;;1.50;99.90;;;;;;5103079;27;20460;-77
2021/01/13 04:30:00;;;;;;;43.07;32.60;;;1.60;99.90;;;;;;5100215;28;20491;-74
2021/01/13 04:32:26;;;;;;;40.40;30.27;;;1.60;99.90;;;;;;5113727;27;20549;-72
2021/01/13 04:34:53;;;;;;;46.13;32.00;;;1.60;99.90;;;;;;5111135;27;20518;-75
2021/01/13 04:37:20;;;;;;;36.93;32.60;;;1.60;99.90;;;;;;5104719;27;20821;-74
2021/01/13 04:39:47;;;;;;;42.67;30.80;;;1.60;99.90;;;;;;5098642;27;20531;-74
2021/01/13 04:42:18;;;;;;;37.60;32.83;;;1.60;99.90;;;;;;5106246;27;20850;-74
2021/01/13 04:45:06;;;;;;;37.47;30.20;;;1.60;99.90;;;;;;5106442;27;20533;-74
2021/01/13 04:47:50;;;;;;;36.80;32.37;;;1.60;99.90;;;;;;5099432;27;20464;-75
2021/01/13 04:50:19;;;;;;;39.60;33.10;;;1.60;99.90;;;;;;5107703;27;20465;-75
2021/01/13 04:52:47;;;;;;;40.97;32.30;;;1.60;99.90;;;;;;5109784;27;20508;-73
2021/01/13 04:55:24;;;;;;;42.40;33.03;;;1.70;99.90;;;;;;5108640;27;20460;-74
2021/01/13 04:58:29;;;;;;;48.70;31.37;;;1.60;99.90;;;;;;5103255;27;20518;-76
2021/01/13 05:01:43;;;;;;;41.87;33.17;;;1.70;99.90;;;;;;5107225;27;20867;-75
2021/01/13 05:04:41;;;;;;;42.03;33.77;;;1.60;99.90;;;;;;5112050;27;20484;-75
2021/01/13 05:07:14;;;;;;;33.73;29.53;;;1.60;99.90;;;;;;5105130;27;20472;-76
2021/01/13 05:09:58;;;;;;;40.40;33.83;;;1.50;99.90;;;;;;5102818;27;20461;-76
2021/01/13 05:12:27;;;;;;;38.73;34.37;;;1.60;99.90;;;;;;5098481;27;20461;-78
2021/01/13 05:15:01;;;;;;;39.87;32.70;;;1.60;99.90;;;;;;5102669;27;20454;-77
2021/01/13 05:17:33;;;;;;;42.60;32.10;;;1.50;99.90;;;;;;5102808;27;20461;-77
2021/01/13 05:20:24;;;;;;;39.90;28.57;;;1.50;99.90;;;;;;5100620;27;20445;-74
2021/01/13 05:22:53;;;;;;;42.47;31.73;;;1.50;99.90;;;;;;5095301;27;20872;-74
2021/01/13 05:25:38;;;;;;;42.40;30.90;;;1.50;99.90;;;;;;5109090;27;20642;-75
2021/01/13 05:28:08;;;;;;;41.43;31.20;;;1.50;99.90;;;;;;5107014;27;20480;-77
2021/01/13 05:30:37;;;;;;;32.23;28.90;;;1.50;99.90;;;;;;5102059;27;20517;-75
2021/01/13 05:33:16;;;;;;;38.00;32.50;;;1.50;99.90;;;;;;5099640;27;20458;-74
2021/01/13 05:35:45;;;;;;;39.50;34.73;;;1.50;99.90;;;;;;5101158;27;20825;-76
2021/01/13 05:38:14;;;;;;;40.23;30.87;;;1.60;99.90;;;;;;5102921;27;20469;-76
2021/01/13 05:40:48;;;;;;;39.90;33.50;;;1.50;99.90;;;;;;5102114;27;20887;-75
2021/01/13 05:43:17;;;;;;;36.53;32.57;;;1.60;99.90;;;;;;5096392;27;20860;-75
2021/01/13 05:45:43;;;;;;;41.73;33.83;;;1.60;99.90;;;;;;5114833;27;20541;-74
2021/01/13 05:48:15;;;;;;;40.50;35.83;;;1.60;99.90;;;;;;5105501;28;20464;-74
2021/01/13 05:50:44;;;;;;;55.03;34.53;;;1.60;99.90;;;;;;5103771;27;20462;-75
2021/01/13 05:53:12;;;;;;;47.83;35.00;;;1.60;99.90;;;;;;5101643;27;20468;-73
2021/01/13 05:55:47;;;;;;;42.97;34.70;;;1.60;99.90;;;;;;5108128;27;20550;-75
2021/01/13 05:58:14;;;;;;;41.23;35.97;;;1.70;99.90;;;;;;5106540;27;20503;-73
2021/01/13 06:00:41;;;;;;;46.03;32.90;;;1.70;99.90;;;;;;5096882;27;20447;-74
2021/01/13 06:03:12;;;;;;;38.60;34.40;;;1.70;99.90;;;;;;5105424;27;20461;-74
2021/01/13 06:05:49;;;;;;;39.67;34.20;;;1.60;99.90;;;;;;5111530;27;20485;-74
2021/01/13 06:08:16;;;;;;;44.30;34.17;;;1.60;99.90;;;;;;5099464;27;20565;-75
2021/01/13 06:10:45;;;;;;;41.50;33.87;;;1.40;99.90;;;;;;5102578;27;20811;-76
2021/01/13 06:13:19;;;;;;;44.70;34.03;;;1.30;99.90;;;;;;5109966;27;20979;-75
2021/01/13 06:15:47;;;;;;;43.30;33.43;;;1.40;99.90;;;;;;5108788;27;20453;-74
2021/01/13 06:18:23;;;;;;;38.97;32.97;;;1.40;99.90;;;;;;5105243;27;20461;-76
2021/01/13 06:20:52;;;;;;;40.13;34.73;;;1.40;99.90;;;;;;5099045;27;20469;-74
2021/01/13 06:23:22;;;;;;;51.00;32.67;;;1.40;99.90;;;;;;5102005;27;20470;-73
2021/01/13 06:25:53;;;;;;;47.13;34.90;;;1.40;99.90;;;;;;5104580;27;20493;-73
2021/01/13 06:28:32;;;;;;;44.67;31.77;;;1.40;99.90;;;;;;5105014;28;20525;-74
2021/01/13 06:31:07;;;;;;;41.20;30.97;;;1.30;99.90;;;;;;5115228;27;20494;-74
2021/01/13 06:33:43;;;;;;;39.07;31.07;;;1.30;99.90;;;;;;5106550;27;20525;-76
2021/01/13 06:36:29;;;;;;;34.13;30.53;;;1.40;99.90;;;;;;5111876;28;20524;-74
2021/01/13 06:38:57;;;;;;;35.67;31.87;;;1.30;99.90;;;;;;5101133;28;20500;-77
2021/01/13 06:41:24;;;;;;;42.63;32.57;;;1.40;99.90;;;;;;5105167;28;20469;-76
2021/01/13 06:44:02;;;;;;;41.70;33.80;;;1.30;99.90;;;;;;5102953;28;20465;-76
2021/01/13 06:46:29;;;;;;;34.40;30.80;;;1.30;99.90;;;;;;5098319;28;20489;-74
2021/01/13 06:49:10;;;;;;;38.43;30.27;;;1.30;99.90;;;;;;5105167;28;20452;-74
2021/01/13 06:51:40;;;;;;;49.73;35.10;;;1.30;99.90;;;;;;5097771;28;20489;-76
2021/01/13 06:54:08;;;;;;;46.57;32.80;;;1.30;99.90;;;;;;5104705;28;20518;-73
2021/01/13 06:56:37;;;;;;;40.93;31.00;;;1.20;99.90;;;;;;5101597;28;20461;-76
2021/01/13 06:59:05;;;;;;;36.10;30.33;;;1.30;99.90;;;;;;5096234;28;20450;-74
2021/01/13 07:01:31;;;;;;;34.30;29.00;;;1.30;99.90;;;;;;5095138;28;20473;-73
2021/01/13 07:03:59;;;;;;;39.67;32.53;;;1.30;99.90;;;;;;5104726;28;20464;-75
2021/01/13 07:06:25;;;;;;;37.87;32.37;;;1.20;99.90;;;;;;5100204;28;20523;-76
2021/01/13 07:08:53;;;;;;;43.13;33.73;;;1.20;99.90;;;;;;5109356;28;20526;-75
2021/01/13 07:11:20;;;;;;;43.50;32.37;;;1.20;99.90;;;;;;5110823;28;20454;-76
2021/01/13 07:13:52;;;;;;;33.30;29.90;;;1.20;99.90;;;;;;5108499;28;20462;-75
2021/01/13 07:16:26;;;;;;;49.63;34.00;;;1.20;99.90;;;;;;5094631;28;20469;-76
2021/01/13 07:18:55;;;;;;;43.67;32.40;;;1.20;99.90;;;;;;5101168;28;20466;-76
2021/01/13 07:21:35;;;;;;;48.03;34.50;;;1.10;99.90;;;;;;5106026;28;20939;-74
2021/01/13 07:24:01;;;;;;;53.10;34.00;;;1.10;99.90;;;;;;5105990;28;20492;-75
2021/01/13 07:26:28;;;;;;;31.70;27.63;;;1.10;99.90;;;;;;5103465;28;20530;-75
2021/01/13 07:28:55;;;;;;;47.70;36.50;;;1.10;99.90;;;;;;5114253;28;20863;-73
2021/01/13 07:31:30;;;;;;;45.97;34.87;;;1.10;99.90;;;;;;5096231;28;20462;-75
2021/01/13 07:34:02;;;;;;;47.20;35.03;;;1.10;99.90;;;;;;5106054;28;20459;-73
2021/01/13 07:36:33;;;;;;;40.77;32.83;;;1.10;99.90;;;;;;5100328;28;20488;-76
2021/01/13 07:39:06;;;;;;;35.93;29.37;;;1.00;99.90;;;;;;5100903;28;20522;-76
2021/01/13 07:42:05;;;;;;;38.87;34.70;;;1.00;99.90;;;;;;5100091;28;20525;-75
2021/01/13 07:44:42;;;;;;;40.63;30.67;;;1.00;99.90;;;;;;5094294;28;20547;-74
2021/01/13 07:47:29;;;;;;;38.50;34.00;;;1.00;99.90;;;;;;5103662;27;20802;-74
2021/01/13 07:50:13;;;;;;;37.53;33.57;;;1.00;99.90;;;;;;5103381;28;20472;-74
2021/01/13 07:52:43;;;;;;;36.63;32.17;;;1.00;99.90;;;;;;5099014;28;20939;-76
2021/01/13 07:55:18;;;;;;;39.67;33.13;;;1.00;99.90;;;;;;5108784;27;20530;-75
2021/01/13 07:57:47;;;;;;;37.47;32.87;;;1.00;99.90;;;;;;5103882;27;20467;-73
2021/01/13 08:00:25;;;;;;;44.73;35.07;;;1.10;99.90;;;;;;5105260;27;20456;-75
2021/01/13 08:03:35;;;;;;;44.17;35.10;;;1.10;99.90;;;;;;5098710;28;21053;-73
2021/01/13 08:06:32;;;;;;;39.87;31.87;;;1.10;99.90;;;;;;5108769;27;20481;-73
2021/01/13 08:09:11;;;;;;;47.00;34.53;;;1.10;99.90;;;;;;5105438;27;20473;-76
2021/01/13 08:12:13;;;;;;;39.30;31.63;;;1.10;99.90;;;;;;5105088;27;20466;-73
2021/01/13 08:15:09;;;;;;;34.33;30.77;;;1.10;99.90;;;;;;5071422;27;20453;-75
2021/01/13 08:17:46;;;;;;;41.60;31.87;;;1.20;99.90;;;;;;5078786;28;20854;-74
2021/01/13 08:20:42;;;;;;;43.27;31.90;;;1.20;99.90;;;;;;5111740;27;20463;-75
2021/01/13 08:23:11;;;;;;;37.30;32.73;;;1.20;99.90;;;;;;5117545;27;20472;-76
2021/01/13 08:25:42;;;;;;;36.37;32.50;;;1.20;99.90;;;;;;5108383;27;20483;-74
2021/01/13 08:28:11;;;;;;;52.67;33.53;;;1.30;99.90;;;;;;5102088;27;20501;-75
2021/01/13 08:30:41;;;;;;;35.43;30.03;;;1.30;99.90;;;;;;5089829;27;20581;-75
2021/01/13 08:33:19;;;;;;;43.83;32.70;;;1.40;99.90;;;;;;5106191;28;20552;-76
2021/01/13 08:35:52;;;;;;;37.90;29.10;;;1.40;99.90;;;;;;5108509;27;20935;-75
2021/01/13 08:38:19;;;;;;;43.23;31.97;;;1.50;99.90;;;;;;5107833;27;20472;-76
2021/01/13 08:40:46;;;;;;;34.53;28.33;;;1.50;99.90;;;;;;5103186;27;20957;-76
2021/01/13 08:43:15;;;;;;;34.73;31.07;;;1.60;99.90;;;;;;5109082;27;20819;-74
2021/01/13 08:45:43;;;;;;;37.20;31.37;;;1.60;99.90;;;;;;5094764;28;20492;-73
2021/01/13 08:48:11;;;;;;;35.00;31.50;;;1.70;99.90;;;;;;5099162;27;20906;-73
2021/01/13 08:50:39;;;;;;;44.40;33.10;;;1.80;99.90;;;;;;5103010;28;21038;-74
2021/01/13 08:53:06;;;;;;;38.47;31.13;;;1.80;99.90;;;;;;5106068;27;20453;-73
2021/01/13 08:55:34;;;;;;;39.80;33.67;;;1.90;99.90;;;;;;5106930;27;20461;-74
2021/01/13 08:58:05;;;;;;;43.23;34.10;;;1.90;99.90;;;;;;5106346;27;20461;-73
2021/01/13 09:00:32;;;;;;;40.43;35.10;;;2.00;99.90;;;;;;5101179;28;20848;-74
2021/01/13 09:03:13;;;;;;;49.70;34.03;;;2.10;99.90;;;;;;5104521;27;21033;-74
2021/01/13 09:05:41;;;;;;;35.43;31.43;;;2.10;99.90;;;;;;5090643;28;20497;-75
2021/01/13 09:08:11;;;;;;;39.10;32.60;;;2.10;99.90;;;;;;5099593;27;20977;-73
2021/01/13 09:10:54;;;;;;;36.50;31.00;;;2.20;99.90;;;;;;5092627;27;20466;-73
2021/01/13 09:13:39;;;;;;;36.57;32.60;;;2.30;99.90;;;;;;5101124;27;20942;-73
2021/01/13 09:16:28;;;;;;;39.73;30.23;;;2.50;99.90;;;;;;5098381;27;20480;-74
2021/01/13 09:18:55;;;;;;;27.10;24.57;;;2.40;99.90;;;;;;5100655;28;20510;-73
2021/01/13 09:21:29;;;;;;;41.43;34.37;;;2.40;99.90;;;;;;5112294;27;20457;-73
2021/01/13 09:23:57;;;;;;;35.63;30.07;;;2.40;99.90;;;;;;5098849;27;20469;-74
2021/01/13 09:26:31;;;;;;;35.57;31.50;;;2.50;99.90;;;;;;5104866;27;20484;-73
2021/01/13 09:28:59;;;;;;;39.73;31.97;;;2.50;99.90;;;;;;5094726;27;20473;-73
2021/01/13 09:31:26;;;;;;;32.83;29.47;;;2.60;99.90;;;;;;5108485;27;20895;-74
2021/01/13 09:33:52;;;;;;;34.07;30.53;;;2.60;99.90;;;;;;5097998;27;20462;-73
2021/01/13 09:36:21;;;;;;;35.63;31.80;;;2.60;99.90;;;;;;5095508;28;20460;-75
2021/01/13 09:38:49;;;;;;;48.80;31.13;;;2.60;99.90;;;;;;5111023;27;20454;-75
2021/01/13 09:41:26;;;;;;;38.50;32.33;;;2.60;99.90;;;;;;5103175;27;20460;-76
2021/01/13 09:44:10;;;;;;;37.33;33.10;;;2.60;99.90;;;;;;5103603;27;20456;-74
2021/01/13 09:46:37;;;;;;;53.40;32.27;;;2.60;99.90;;;;;;5106733;27;20472;-76
2021/01/13 09:49:06;;;;;;;30.47;27.20;;;2.70;99.90;;;;;;5101686;27;20457;-75
2021/01/13 09:51:33;;;;;;;33.33;27.33;;;2.80;99.90;;;;;;5097535;28;20472;-76
2021/01/13 09:54:02;;;;;;;38.47;27.43;;;2.80;99.90;;;;;;5112922;27;20465;-77
2021/01/13 09:56:31;;;;;;;35.50;29.13;;;2.90;99.90;;;;;;5109064;27;20461;-77
2021/01/13 09:58:57;;;;;;;40.57;28.53;;;2.90;99.90;;;;;;5104098;27;20462;-77
2021/01/13 10:01:26;;;;;;;32.13;25.70;;;2.90;99.90;;;;;;5107018;27;20474;-78
2021/01/13 10:03:55;;;;;;;42.27;29.37;;;3.00;99.90;;;;;;5092849;28;20456;-77
2021/01/13 10:06:23;;;;;;;32.87;25.23;;;2.90;99.90;;;;;;5105634;27;20489;-76
2021/01/13 10:08:51;;;;;;;32.67;29.23;;;2.90;99.90;;;;;;5100413;27;20818;-78
2021/01/13 10:11:19;;;;;;;45.80;28.93;;;2.90;99.90;;;;;;5108265;27;20461;-80
2021/01/13 10:13:58;;;;;;;33.70;28.23;;;3.00;99.90;;;;;;5094932;27;20829;-76
2021/01/13 10:16:26;;;;;;;39.40;29.20;;;3.10;99.90;;;;;;5094084;27;20465;-78
2021/01/13 10:18:54;;;;;;;45.10;31.57;;;3.20;99.90;;;;;;5100526;28;20461;-78
2021/01/13 10:21:22;;;;;;;36.93;31.77;;;3.30;99.90;;;;;;5103827;27;20469;-77
2021/01/13 10:23:50;;;;;;;36.97;29.60;;;3.40;99.90;;;;;;5112760;27;20457;-78
2021/01/13 10:26:16;;;;;;;36.17;28.43;;;3.40;99.90;;;;;;5109135;27;20496;-78
2021/01/13 10:28:44;;;;;;;42.80;26.80;;;3.50;99.90;;;;;;5101655;27;20877;-76
2021/01/13 10:31:23;;;;;;;28.63;25.10;;;3.70;99.90;;;;;;5098860;28;20840;-78
2021/01/13 10:33:54;;;;;;;32.10;26.13;;;3.80;99.90;;;;;;5093412;28;20495;-78
2021/01/13 10:36:32;;;;;;;39.07;29.53;;;4.00;99.90;;;;;;5107111;27;20458;-76
2021/01/13 10:38:59;;;;;;;29.57;24.93;;;4.10;99.90;;;;;;5097579;28;20624;-75
2021/01/13 10:41:34;;;;;;;30.20;25.83;;;4.00;99.90;;;;;;5099329;28;21104;-78
2021/01/13 10:44:03;;;;;;;33.70;27.03;;;4.10;99.90;;;;;;5101955;28;20460;-76
2021/01/13 10:46:48;;;;;;;33.67;26.50;;;4.20;99.90;;;;;;5101207;28;20508;-77
2021/01/13 10:49:31;;;;;;;30.30;26.70;;;4.30;99.90;;;;;;5095706;28;20469;-77
2021/01/13 10:51:59;;;;;;;31.37;27.37;;;4.30;99.90;;;;;;5098809;28;20531;-76
2021/01/13 10:54:27;;;;;;;39.37;29.50;;;4.30;99.90;;;;;;5105819;28;20465;-77
2021/01/13 10:56:55;;;;;;;31.33;28.20;;;4.30;99.90;;;;;;5098833;28;20453;-79
2021/01/13 10:59:22;;;;;;;34.17;27.40;;;4.50;99.90;;;;;;5099364;28;20800;-77
2021/01/13 11:01:52;;;;;;;42.07;28.50;;;4.60;99.90;;;;;;5093448;28;20960;-78
2021/01/13 11:04:24;;;;;;;36.77;27.20;;;4.70;99.90;;;;;;5099543;27;20910;-78
2021/01/13 11:06:56;;;;;;;37.63;26.43;;;4.70;99.90;;;;;;5099178;28;20453;-79
2021/01/13 11:09:23;;;;;;;35.50;29.03;;;4.90;99.90;;;;;;5097902;28;20453;-77
2021/01/13 11:11:51;;;;;;;30.53;26.47;;;4.80;99.90;;;;;;5114599;28;20468;-78
2021/01/13 11:14:29;;;;;;;30.77;26.40;;;4.80;99.90;;;;;;5110557;28;20531;-78
2021/01/13 11:17:02;;;;;;;32.90;28.10;;;4.90;99.90;;;;;;5097876;28;20468;-79
2021/01/13 11:19:29;;;;;;;29.93;25.00;;;5.10;99.90;;;;;;5104841;27;20494;-77
2021/01/13 11:21:56;;;;;;;30.47;27.43;;;5.20;99.90;;;;;;5109840;27;20453;-79
2021/01/13 11:24:29;;;;;;;41.20;29.57;;;5.10;99.90;;;;;;5109797;27;21014;-78
2021/01/13 11:26:58;;;;;;;29.53;25.97;;;5.00;99.90;;;;;;5109720;27;20454;-77
2021/01/13 11:29:28;;;;;;;33.47;26.53;;;4.90;99.90;;;;;;5102402;27;20577;-77
2021/01/13 11:31:55;;;;;;;27.03;24.33;;;4.70;99.90;;;;;;5106878;27;20496;-75
2021/01/13 11:34:24;;;;;;;29.63;26.57;;;4.70;99.90;;;;;;5105095;27;20886;-76
2021/01/13 11:37:17;;;;;;;35.00;25.00;;;4.70;99.90;;;;;;5114157;27;20458;-76
2021/01/13 11:39:47;;;;;;;27.07;24.27;;;4.60;99.90;;;;;;5109864;27;20546;-75
2021/01/13 11:42:22;;;;;;;27.53;24.77;;;4.60;99.90;;;;;;5112724;27;20453;-76
2021/01/13 11:45:05;;;;;;;29.27;24.70;;;4.60;99.90;;;;;;5109683;27;20490;-76
2021/01/13 11:47:33;;;;;;;32.27;24.23;;;4.60;99.90;;;;;;5102678;27;20485;-75
2021/01/13 11:50:11;;;;;;;26.57;23.87;;;4.50;99.90;;;;;;5103278;27;20830;-76
2021/01/13 11:52:41;;;;;;;29.00;25.33;;;4.60;99.90;;;;;;5104413;27;20491;-79
2021/01/13 11:55:09;;;;;;;35.07;25.83;;;4.70;99.90;;;;;;5101240;28;20826;-78
2021/01/13 11:57:35;;;;;;;31.07;23.80;;;4.80;99.90;;;;;;5114601;27;20464;-76
2021/01/13 12:00:15;;;;;;;28.47;25.57;;;4.80;99.90;;;;;;5110453;27;20462;-78
2021/01/13 12:02:45;;;;;;;34.70;25.30;;;4.80;99.90;;;;;;5109289;27;20488;-79
2021/01/13 12:05:23;;;;;;;24.80;22.40;;;4.80;99.90;;;;;;5113747;27;20532;-76
2021/01/13 12:07:59;;;;;;;27.97;24.60;;;4.80;99.90;;;;;;5105562;27;20461;-77
2021/01/13 12:10:35;;;;;;;26.97;24.10;;;4.80;99.90;;;;;;5100098;27;20458;-77
2021/01/13 12:13:27;;;;;;;24.77;22.03;;;4.80;99.90;;;;;;5105195;27;20452;-77
2021/01/13 12:15:57;;;;;;;29.90;23.30;;;4.80;99.90;;;;;;5079215;27;20454;-79
2021/01/13 12:18:26;;;;;;;32.77;23.23;;;4.80;99.90;;;;;;5107512;27;20473;-77
2021/01/13 12:20:55;;;;;;;28.10;24.50;;;4.80;99.90;;;;;;5107395;27;20500;-78
2021/01/13 12:23:24;;;;;;;34.17;24.07;;;4.70;99.90;;;;;;5102734;27;20462;-76
2021/01/13 12:25:51;;;;;;;34.07;25.30;;;4.70;99.90;;;;;;5104299;27;21078;-77
2021/01/13 12:28:17;;;;;;;25.40;22.90;;;4.80;99.90;;;;;;5102189;27;20494;-79
2021/01/13 12:30:55;;;;;;;24.00;21.57;;;4.80;99.90;;;;;;5097189;27;20466;-78
2021/01/13 12:33:22;;;;;;;26.30;23.27;;;4.80;99.90;;;;;;5100383;27;20488;-78
2021/01/13 12:35:49;;;;;;;26.50;24.03;;;4.90;99.90;;;;;;5104058;27;20460;-81
2021/01/13 12:38:16;;;;;;;25.90;23.17;;;4.90;99.90;;;;;;5098212;28;20523;-76
2021/01/13 12:40:42;;;;;;;24.93;22.50;;;5.00;99.90;;;;;;5109015;27;20544;-79
2021/01/13 12:43:16;;;;;;;25.57;22.30;;;4.90;99.90;;;;;;5101308;28;20492;-78
2021/01/13 12:45:43;;;;;;;23.00;20.90;;;5.00;99.90;;;;;;5113591;27;20487;-75
2021/01/13 12:48:10;;;;;;;26.87;21.40;;;5.00;99.90;;;;;;5095950;27;20458;-79
2021/01/13 12:50:37;;;;;;;24.23;21.57;;;5.00;99.90;;;;;;5098070;27;20485;-77
2021/01/13 12:53:03;;;;;;;23.83;21.43;;;5.00;99.90;;;;;;5092755;28;20797;-79
2021/01/13 12:55:31;;;;;;;23.47;21.30;;;5.20;99.90;;;;;;5097255;27;20470;-79
2021/01/13 12:57:57;;;;;;;27.20;20.10;;;5.50;99.90;;;;;;5093843;27;20851;-77
2021/01/13 13:00:25;;;;;;;22.40;20.23;;;5.40;99.90;;;;;;5102949;28;20483;-78
2021/01/13 13:02:52;;;;;;;25.37;22.40;;;5.40;99.90;;;;;;5108952;27;20469;-77
2021/01/13 13:05:19;;;;;;;23.30;20.70;;;5.40;99.90;;;;;;5103252;27;20488;-77